sensor_id;sensor_type;location;lat;lon;timestamp;pressure;altitude;pressure_sealevel;temperature;humidity
40650;BME280;26342;42.826;23.992;2023-08-01T00:02:23;95064.03;;;18.97;100.00
40650;BME280;26342;42.826;23.992;2023-08-01T00:04:48;95060.53;;;18.96;100.00
40650;BME280;26342;42.826;23.992;2023-08-01T00:07:14;95043.31;;;18.84;100.00
40650;BME280;26342;42.826;23.992;2023-08-01T00:09:39;95060.03;;;18.94;100.00
40650;BME280;26342;42.826;23.992;2023-08-01T00:12:05;95056.53;;;18.94;100.00
40650;BME280;26342;42.826;23.992;2023-08-01T00:14:30;95048.41;;;18.94;100.00
40650;BME280;26342;42.826;23.992;2023-08-01T00:16:56;95038.72;;;18.93;100.00
40650;BME280;26342;42.826;23.992;2023-08-01T00:19:22;95036.00;;;18.93;100.00
40650;BME280;26342;42.826;23.992;2023-08-01T00:21:47;95038.72;;;18.93;100.00
40650;BME280;26342;42.826;23.992;2023-08-01T00:24:14;95036.00;;;18.93;100.00
40650;BME280;26342;42.826;23.992;2023-08-01T00:26:39;95038.38;;;18.86;100.00
40650;BME280;26342;42.826;23.992;2023-08-01T00:29:05;95029.00;;;18.83;100.00
40650;BME280;26342;42.826;23.992;2023-08-01T00:31:30;95025.50;;;18.83;100.00
40650;BME280;26342;42.826;23.992;2023-08-01T00:33:55;95025.19;;;18.76;100.00
40650;BME280;26342;42.826;23.992;2023-08-01T00:36:21;95029.16;;;18.78;100.00
40650;BME280;26342;42.826;23.992;2023-08-01T00:38:46;95023.75;;;18.69;100.00
40650;BME280;26342;42.826;23.992;2023-08-01T00:41:12;95032.66;;;18.70;100.00
40650;BME280;26342;42.826;23.992;2023-08-01T00:43:38;95027.09;;;18.66;100.00
40650;BME280;26342;42.826;23.992;2023-08-01T00:46:04;95018.31;;;18.61;100.00
40650;BME280;26342;42.826;23.992;2023-08-01T00:48:31;95021.00;;;18.61;100.00
40650;BME280;26342;42.826;23.992;2023-08-01T00:51:03;95020.66;;;18.54;100.00
40650;BME280;26342;42.826;23.992;2023-08-01T00:53:29;95013.34;;;18.54;100.00
40650;BME280;26342;42.826;23.992;2023-08-01T00:55:55;95020.09;;;18.65;100.00
40650;BME280;26342;42.826;23.992;2023-08-01T00:58:21;95013.06;;;18.64;100.00
40650;BME280;26342;42.826;23.992;2023-08-01T01:00:47;95011.94;;;18.57;100.00
40650;BME280;26342;42.826;23.992;2023-08-01T01:03:14;95011.47;;;18.63;100.00
40650;BME280;26342;42.826;23.992;2023-08-01T01:05:49;95014.69;;;18.65;100.00
40650;BME280;26342;42.826;23.992;2023-08-01T01:08:19;95007.03;;;18.59;100.00
40650;BME280;26342;42.826;23.992;2023-08-01T01:10:45;95007.03;;;18.59;100.00
40650;BME280;26342;42.826;23.992;2023-08-01T01:13:10;95006.69;;;18.60;100.00
40650;BME280;26342;42.826;23.992;2023-08-01T01:15:36;95005.91;;;18.51;100.00
40650;BME280;26342;42.826;23.992;2023-08-01T01:18:01;94997.94;;;18.46;100.00
40650;BME280;26342;42.826;23.992;2023-08-01T01:20:33;95003.34;;;18.46;100.00
40650;BME280;26342;42.826;23.992;2023-08-01T01:23:00;94991.41;;;18.38;100.00
40650;BME280;26342;42.826;23.992;2023-08-01T01:25:26;94990.78;;;18.33;100.00
40650;BME280;26342;42.826;23.992;2023-08-01T01:27:53;94982.66;;;18.33;100.00
40650;BME280;26342;42.826;23.992;2023-08-01T01:30:19;94980.56;;;18.30;100.00
40650;BME280;26342;42.826;23.992;2023-08-01T01:32:45;94991.06;;;18.31;100.00
40650;BME280;26342;42.826;23.992;2023-08-01T01:35:11;94984.06;;;18.30;100.00
40650;BME280;26342;42.826;23.992;2023-08-01T01:37:37;94978.03;;;18.25;100.00
40650;BME280;26342;42.826;23.992;2023-08-01T01:40:02;94987.41;;;18.27;100.00
40650;BME280;26342;42.826;23.992;2023-08-01T01:42:27;94990.91;;;18.28;100.00
40650;BME280;26342;42.826;23.992;2023-08-01T01:44:53;94984.34;;;18.11;100.00
40650;BME280;26342;42.826;23.992;2023-08-01T01:47:19;94983.88;;;18.09;100.00
40650;BME280;26342;42.826;23.992;2023-08-01T01:49:44;94969.69;;;17.95;100.00
40650;BME280;26342;42.826;23.992;2023-08-01T01:52:10;94984.16;;;17.99;100.00
40650;BME280;26342;42.826;23.992;2023-08-01T01:54:35;94990.06;;;18.01;100.00
40650;BME280;26342;42.826;23.992;2023-08-01T01:57:00;94971.44;;;18.00;100.00
40650;BME280;26342;42.826;23.992;2023-08-01T01:59:26;94975.72;;;18.01;100.00
40650;BME280;26342;42.826;23.992;2023-08-01T02:01:51;94971.59;;;17.95;100.00
40650;BME280;26342;42.826;23.992;2023-08-01T02:04:16;94981.91;;;17.93;100.00
40650;BME280;26342;42.826;23.992;2023-08-01T02:06:43;94975.34;;;17.85;100.00
40650;BME280;26342;42.826;23.992;2023-08-01T02:09:08;94984.09;;;17.82;100.00
40650;BME280;26342;42.826;23.992;2023-08-01T02:11:34;94988.81;;;17.76;100.00
40650;BME280;26342;42.826;23.992;2023-08-01T02:13:59;94988.75;;;17.68;100.00
40650;BME280;26342;42.826;23.992;2023-08-01T02:16:27;94983.78;;;17.61;100.00
40650;BME280;26342;42.826;23.992;2023-08-01T02:18:52;94982.59;;;17.45;100.00
40650;BME280;26342;42.826;23.992;2023-08-01T02:21:17;94981.00;;;17.44;100.00
40650;BME280;26342;42.826;23.992;2023-08-01T02:23:43;94991.16;;;17.38;100.00
40650;BME280;26342;42.826;23.992;2023-08-01T02:26:09;94979.88;;;17.36;100.00
40650;BME280;26342;42.826;23.992;2023-08-01T02:28:34;94982.88;;;17.35;100.00
40650;BME280;26342;42.826;23.992;2023-08-01T02:30:59;94980.19;;;17.35;100.00
40650;BME280;26342;42.826;23.992;2023-08-01T02:33:25;94988.91;;;17.32;100.00
40650;BME280;26342;42.826;23.992;2023-08-01T02:35:50;94978.34;;;17.21;100.00
40650;BME280;26342;42.826;23.992;2023-08-01T02:38:16;94985.34;;;17.22;100.00
40650;BME280;26342;42.826;23.992;2023-08-01T02:40:41;94987.84;;;17.19;100.00
40650;BME280;26342;42.826;23.992;2023-08-01T02:43:06;94992.63;;;17.22;100.00
40650;BME280;26342;42.826;23.992;2023-08-01T02:45:32;94989.28;;;17.16;100.00
40650;BME280;26342;42.826;23.992;2023-08-01T02:47:57;94990.06;;;17.17;100.00
40650;BME280;26342;42.826;23.992;2023-08-01T02:50:23;94977.50;;;17.12;100.00
40650;BME280;26342;42.826;23.992;2023-08-01T02:52:49;94992.28;;;17.15;100.00
40650;BME280;26342;42.826;23.992;2023-08-01T02:55:14;94992.94;;;17.20;100.00
40650;BME280;26342;42.826;23.992;2023-08-01T02:57:40;94996.25;;;17.17;100.00
40650;BME280;26342;42.826;23.992;2023-08-01T03:00:05;94985.91;;;17.11;100.00
40650;BME280;26342;42.826;23.992;2023-08-01T03:02:37;94987.00;;;17.10;100.00
40650;BME280;26342;42.826;23.992;2023-08-01T03:05:02;94988.16;;;16.95;100.00
40650;BME280;26342;42.826;23.992;2023-08-01T03:07:30;94997.34;;;16.94;100.00
40650;BME280;26342;42.826;23.992;2023-08-01T03:09:55;94991.16;;;16.93;100.00
40650;BME280;26342;42.826;23.992;2023-08-01T03:12:21;94986.09;;;16.92;100.00
40650;BME280;26342;42.826;23.992;2023-08-01T03:14:46;94991.97;;;16.94;100.00
40650;BME280;26342;42.826;23.992;2023-08-01T03:17:12;94994.53;;;16.77;100.00
40650;BME280;26342;42.826;23.992;2023-08-01T03:19:38;94990.34;;;16.70;100.00
40650;BME280;26342;42.826;23.992;2023-08-01T03:22:04;94993.25;;;16.60;100.00
40650;BME280;26342;42.826;23.992;2023-08-01T03:24:30;94983.06;;;16.57;100.00
40650;BME280;26342;42.826;23.992;2023-08-01T03:26:55;94992.31;;;16.65;100.00
40650;BME280;26342;42.826;23.992;2023-08-01T03:29:21;94991.72;;;16.68;100.00
40650;BME280;26342;42.826;23.992;2023-08-01T03:31:46;94981.16;;;16.58;100.00
40650;BME280;26342;42.826;23.992;2023-08-01T03:34:12;94981.69;;;16.60;100.00
40650;BME280;26342;42.826;23.992;2023-08-01T03:36:38;94985.66;;;16.62;100.00
40650;BME280;26342;42.826;23.992;2023-08-01T03:39:03;94992.47;;;16.60;100.00
40650;BME280;26342;42.826;23.992;2023-08-01T03:41:29;94991.28;;;16.52;100.00
40650;BME280;26342;42.826;23.992;2023-08-01T03:43:54;94988.06;;;16.50;100.00
40650;BME280;26342;42.826;23.992;2023-08-01T03:46:20;94986.88;;;16.42;100.00
40650;BME280;26342;42.826;23.992;2023-08-01T03:48:45;94988.50;;;16.43;100.00
40650;BME280;26342;42.826;23.992;2023-08-01T03:51:11;94986.59;;;16.44;100.00
40650;BME280;26342;42.826;23.992;2023-08-01T03:53:36;94987.69;;;16.43;100.00
40650;BME280;26342;42.826;23.992;2023-08-01T03:56:02;94987.31;;;16.36;100.00
40650;BME280;26342;42.826;23.992;2023-08-01T03:58:27;94991.59;;;16.37;100.00
40650;BME280;26342;42.826;23.992;2023-08-01T04:00:53;94984.81;;;16.39;100.00
40650;BME280;26342;42.826;23.992;2023-08-01T04:03:18;94980.84;;;16.37;100.00
40650;BME280;26342;42.826;23.992;2023-08-01T04:05:44;94985.69;;;16.48;100.00
40650;BME280;26342;42.826;23.992;2023-08-01T04:08:09;94985.09;;;16.52;100.00
40650;BME280;26342;42.826;23.992;2023-08-01T04:10:35;94993.25;;;16.60;100.00
40650;BME280;26342;42.826;23.992;2023-08-01T04:13:00;94996.06;;;16.69;100.00
40650;BME280;26342;42.826;23.992;2023-08-01T04:15:25;94996.06;;;16.69;100.00
40650;BME280;26342;42.826;23.992;2023-08-01T04:17:51;94982.56;;;16.69;100.00
40650;BME280;26342;42.826;23.992;2023-08-01T04:20:16;94989.78;;;16.82;100.00
40650;BME280;26342;42.826;23.992;2023-08-01T04:22:42;94994.91;;;16.84;100.00
40650;BME280;26342;42.826;23.992;2023-08-01T04:25:07;94996.13;;;17.00;100.00
40650;BME280;26342;42.826;23.992;2023-08-01T04:27:33;94990.84;;;16.95;100.00
40650;BME280;26342;42.826;23.992;2023-08-01T04:29:58;94981.25;;;17.02;100.00
40650;BME280;26342;42.826;23.992;2023-08-01T04:32:24;94991.78;;;17.13;100.00
40650;BME280;26342;42.826;23.992;2023-08-01T04:34:49;94987.84;;;17.19;100.00
40650;BME280;26342;42.826;23.992;2023-08-01T04:37:14;94989.50;;;17.28;100.00
40650;BME280;26342;42.826;23.992;2023-08-01T04:39:40;94981.16;;;17.39;100.00
40650;BME280;26342;42.826;23.992;2023-08-01T04:42:06;94993.97;;;17.33;100.00
40650;BME280;26342;42.826;23.992;2023-08-01T04:44:31;94981.25;;;17.25;100.00
40650;BME280;26342;42.826;23.992;2023-08-01T04:46:57;94989.84;;;17.36;100.00
40650;BME280;26342;42.826;23.992;2023-08-01T04:49:23;94992.00;;;17.47;100.00
40650;BME280;26342;42.826;23.992;2023-08-01T04:51:52;94989.34;;;17.56;100.00
40650;BME280;26342;42.826;23.992;2023-08-01T04:54:17;94993.63;;;17.57;100.00
40650;BME280;26342;42.826;23.992;2023-08-01T04:56:43;94992.72;;;17.62;100.00
40650;BME280;26342;42.826;23.992;2023-08-01T04:59:08;94995.22;;;17.58;100.00
40650;BME280;26342;42.826;23.992;2023-08-01T05:01:33;94993.50;;;17.62;100.00
40650;BME280;26342;42.826;23.992;2023-08-01T05:03:59;94998.19;;;17.70;100.00
40650;BME280;26342;42.826;23.992;2023-08-01T05:06:25;94995.38;;;17.93;100.00
40650;BME280;26342;42.826;23.992;2023-08-01T05:08:50;94993.69;;;18.05;100.00
40650;BME280;26342;42.826;23.992;2023-08-01T05:11:16;94986.88;;;18.08;100.00
40650;BME280;26342;42.826;23.992;2023-08-01T05:13:41;94989.13;;;18.23;100.00
40650;BME280;26342;42.826;23.992;2023-08-01T05:16:07;94988.06;;;18.33;100.00
40650;BME280;26342;42.826;23.992;2023-08-01T05:18:32;94996.03;;;18.55;100.00
40650;BME280;26342;42.826;23.992;2023-08-01T05:20:57;94993.53;;;18.67;100.00
40650;BME280;26342;42.826;23.992;2023-08-01T05:23:23;94990.53;;;18.78;100.00
40650;BME280;26342;42.826;23.992;2023-08-01T05:25:49;94991.81;;;18.80;100.00
40650;BME280;26342;42.826;23.992;2023-08-01T05:28:14;94987.81;;;18.95;100.00
40650;BME280;26342;42.826;23.992;2023-08-01T05:30:40;94988.91;;;19.11;100.00
40650;BME280;26342;42.826;23.992;2023-08-01T05:33:06;94975.72;;;19.18;100.00
40650;BME280;26342;42.826;23.992;2023-08-01T05:35:31;94985.72;;;19.44;100.00
40650;BME280;26342;42.826;23.992;2023-08-01T05:37:57;94982.50;;;19.42;100.00
40650;BME280;26342;42.826;23.992;2023-08-01T05:40:22;94987.41;;;19.66;100.00
40650;BME280;26342;42.826;23.992;2023-08-01T05:42:47;94987.66;;;19.82;100.00
40650;BME280;26342;42.826;23.992;2023-08-01T05:45:13;94993.84;;;19.99;100.00
40650;BME280;26342;42.826;23.992;2023-08-01T05:47:38;94990.84;;;20.22;100.00
40650;BME280;26342;42.826;23.992;2023-08-01T05:50:05;94980.28;;;20.29;100.00
40650;BME280;26342;42.826;23.992;2023-08-01T05:52:31;94979.44;;;20.37;100.00
40650;BME280;26342;42.826;23.992;2023-08-01T05:54:57;94978.91;;;20.52;100.00
40650;BME280;26342;42.826;23.992;2023-08-01T05:57:22;94975.47;;;20.64;100.00
40650;BME280;26342;42.826;23.992;2023-08-01T05:59:47;94985.53;;;20.84;100.00
40650;BME280;26342;42.826;23.992;2023-08-01T06:02:13;94992.94;;;20.96;100.00
40650;BME280;26342;42.826;23.992;2023-08-01T06:04:38;94989.97;;;21.10;100.00
40650;BME280;26342;42.826;23.992;2023-08-01T06:07:05;94991.47;;;21.19;100.00
40650;BME280;26342;42.826;23.992;2023-08-01T06:09:30;94987.91;;;21.28;100.00
40650;BME280;26342;42.826;23.992;2023-08-01T06:11:56;94988.06;;;21.43;100.00
40650;BME280;26342;42.826;23.992;2023-08-01T06:14:21;94982.81;;;21.59;100.00
40650;BME280;26342;42.826;23.992;2023-08-01T06:16:47;94982.91;;;21.63;100.00
40650;BME280;26342;42.826;23.992;2023-08-01T06:19:12;94983.84;;;21.79;100.00
40650;BME280;26342;42.826;23.992;2023-08-01T06:21:37;94984.34;;;22.06;100.00
40650;BME280;26342;42.826;23.992;2023-08-01T06:24:03;94982.66;;;22.25;100.00
40650;BME280;26342;42.826;23.992;2023-08-01T06:26:29;94973.16;;;22.32;100.00
40650;BME280;26342;42.826;23.992;2023-08-01T06:28:54;94970.66;;;22.39;100.00
40650;BME280;26342;42.826;23.992;2023-08-01T06:31:20;94973.91;;;22.56;100.00
40650;BME280;26342;42.826;23.992;2023-08-01T06:33:46;94966.91;;;22.68;100.00
40650;BME280;26342;42.826;23.992;2023-08-01T06:36:12;94967.75;;;22.84;100.00
40650;BME280;26342;42.826;23.992;2023-08-01T06:38:38;94968.66;;;23.00;100.00
40650;BME280;26342;42.826;23.992;2023-08-01T06:41:03;94967.56;;;23.17;100.00
40650;BME280;26342;42.826;23.992;2023-08-01T06:43:29;94958.22;;;23.30;94.65
40650;BME280;26342;42.826;23.992;2023-08-01T06:45:54;94968.94;;;23.39;91.14
40650;BME280;26342;42.826;23.992;2023-08-01T06:48:20;94966.94;;;23.52;86.13
40650;BME280;26342;42.826;23.992;2023-08-01T06:50:45;94957.84;;;23.60;84.63
40650;BME280;26342;42.826;23.992;2023-08-01T06:53:11;94954.06;;;23.64;87.89
40650;BME280;26342;42.826;23.992;2023-08-01T06:55:36;94952.31;;;23.72;87.67
40650;BME280;26342;42.826;23.992;2023-08-01T06:58:02;94953.31;;;23.80;87.63
40650;BME280;26342;42.826;23.992;2023-08-01T07:00:27;94945.38;;;23.90;84.15
40650;BME280;26342;42.826;23.992;2023-08-01T07:02:53;94947.31;;;24.06;83.97
40650;BME280;26342;42.826;23.992;2023-08-01T07:05:18;94946.16;;;24.22;86.25
40650;BME280;26342;42.826;23.992;2023-08-01T07:07:43;94939.06;;;24.34;76.79
40650;BME280;26342;42.826;23.992;2023-08-01T07:10:09;94947.28;;;24.53;75.92
40650;BME280;26342;42.826;23.992;2023-08-01T07:12:35;94938.53;;;24.63;74.69
40650;BME280;26342;42.826;23.992;2023-08-01T07:15:00;94930.22;;;24.75;73.04
40650;BME280;26342;42.826;23.992;2023-08-01T07:17:26;94934.84;;;24.91;69.32
40650;BME280;26342;42.826;23.992;2023-08-01T07:19:51;94937.59;;;25.10;66.05
40650;BME280;26342;42.826;23.992;2023-08-01T07:22:17;94938.59;;;25.21;64.93
40650;BME280;26342;42.826;23.992;2023-08-01T07:24:42;94929.31;;;25.26;64.27
40650;BME280;26342;42.826;23.992;2023-08-01T07:27:08;94930.78;;;25.43;63.95
40650;BME280;26342;42.826;23.992;2023-08-01T07:29:33;94934.91;;;25.52;62.43
40650;BME280;26342;42.826;23.992;2023-08-01T07:31:59;94928.75;;;25.59;65.51
40650;BME280;26342;42.826;23.992;2023-08-01T07:34:24;94933.09;;;25.60;63.14
40650;BME280;26342;42.826;23.992;2023-08-01T07:36:49;94924.28;;;25.70;63.34
40650;BME280;26342;42.826;23.992;2023-08-01T07:39:16;94934.63;;;25.80;63.01
40650;BME280;26342;42.826;23.992;2023-08-01T07:41:41;94931.41;;;25.98;58.54
40650;BME280;26342;42.826;23.992;2023-08-01T07:44:07;94935.09;;;26.09;58.88
40650;BME280;26342;42.826;23.992;2023-08-01T07:46:32;94929.88;;;26.23;58.04
40650;BME280;26342;42.826;23.992;2023-08-01T07:48:58;94931.31;;;26.40;56.71
40650;BME280;26342;42.826;23.992;2023-08-01T07:51:27;94929.94;;;26.53;53.84
40650;BME280;26342;42.826;23.992;2023-08-01T07:53:55;94927.66;;;26.59;57.29
40650;BME280;26342;42.826;23.992;2023-08-01T07:56:20;94933.34;;;26.73;58.13
40650;BME280;26342;42.826;23.992;2023-08-01T07:58:46;94928.41;;;26.86;57.73
40650;BME280;26342;42.826;23.992;2023-08-01T08:01:11;94922.34;;;26.99;59.82
40650;BME280;26342;42.826;23.992;2023-08-01T08:03:37;94925.94;;;27.04;57.19
40650;BME280;26342;42.826;23.992;2023-08-01T08:06:02;94919.34;;;27.08;60.04
40650;BME280;26342;42.826;23.992;2023-08-01T08:08:29;94928.44;;;27.16;60.54
40650;BME280;26342;42.826;23.992;2023-08-01T08:10:55;94923.03;;;27.23;58.85
40650;BME280;26342;42.826;23.992;2023-08-01T08:13:20;94921.09;;;27.23;58.64
40650;BME280;26342;42.826;23.992;2023-08-01T08:15:46;94909.75;;;27.25;61.61
40650;BME280;26342;42.826;23.992;2023-08-01T08:18:11;94906.69;;;27.30;60.31
40650;BME280;26342;42.826;23.992;2023-08-01T08:20:41;94900.97;;;27.46;61.60
40650;BME280;26342;42.826;23.992;2023-08-01T08:23:08;94905.44;;;27.61;57.92
40650;BME280;26342;42.826;23.992;2023-08-01T08:25:33;94902.41;;;27.70;57.68
40650;BME280;26342;42.826;23.992;2023-08-01T08:27:59;94898.16;;;27.76;57.27
40650;BME280;26342;42.826;23.992;2023-08-01T08:30:24;94893.97;;;27.89;58.33
40650;BME280;26342;42.826;23.992;2023-08-01T08:32:50;94897.56;;;27.97;59.14
40650;BME280;26342;42.826;23.992;2023-08-01T08:35:15;94891.31;;;28.00;57.16
40650;BME280;26342;42.826;23.992;2023-08-01T08:37:41;94891.78;;;28.09;56.29
40650;BME280;26342;42.826;23.992;2023-08-01T08:40:07;94891.34;;;28.03;53.90
40650;BME280;26342;42.826;23.992;2023-08-01T08:42:33;94897.66;;;28.07;57.09
40650;BME280;26342;42.826;23.992;2023-08-01T08:45:01;94881.69;;;28.20;52.96
40650;BME280;26342;42.826;23.992;2023-08-01T08:47:28;94882.09;;;28.22;52.54
40650;BME280;26342;42.826;23.992;2023-08-01T08:49:55;94885.31;;;28.31;52.71
40650;BME280;26342;42.826;23.992;2023-08-01T08:52:23;94879.13;;;28.45;53.12
40650;BME280;26342;42.826;23.992;2023-08-01T08:54:49;94880.31;;;28.51;49.08
40650;BME280;26342;42.826;23.992;2023-08-01T08:57:15;94885.38;;;28.42;48.51
40650;BME280;26342;42.826;23.992;2023-08-01T08:59:41;94876.69;;;28.33;48.85
40650;BME280;26342;42.826;23.992;2023-08-01T09:02:07;94885.03;;;28.51;50.18
40650;BME280;26342;42.826;23.992;2023-08-01T09:04:32;94874.91;;;28.62;50.26
40650;BME280;26342;42.826;23.992;2023-08-01T09:07:02;94874.97;;;28.80;49.27
40650;BME280;26342;42.826;23.992;2023-08-01T09:09:28;94871.06;;;28.77;50.01
40650;BME280;26342;42.826;23.992;2023-08-01T09:11:54;94870.38;;;28.98;50.85
40650;BME280;26342;42.826;23.992;2023-08-01T09:14:22;94875.50;;;29.00;48.87
40650;BME280;26342;42.826;23.992;2023-08-01T09:16:48;94865.66;;;28.91;49.67
40650;BME280;26342;42.826;23.992;2023-08-01T09:19:21;94857.06;;;29.00;48.94
40650;BME280;26342;42.826;23.992;2023-08-01T09:21:47;94858.25;;;29.03;47.96
40650;BME280;26342;42.826;23.992;2023-08-01T09:24:17;94860.63;;;29.11;48.68
40650;BME280;26342;42.826;23.992;2023-08-01T09:26:44;94847.69;;;29.15;50.17
40650;BME280;26342;42.826;23.992;2023-08-01T09:29:10;94859.47;;;29.30;49.22
40650;BME280;26342;42.826;23.992;2023-08-01T09:31:38;94854.41;;;29.36;49.67
40650;BME280;26342;42.826;23.992;2023-08-01T09:34:17;94855.19;;;29.43;49.81
40650;BME280;26342;42.826;23.992;2023-08-01T09:36:42;94847.41;;;29.56;47.20
40650;BME280;26342;42.826;23.992;2023-08-01T09:39:08;94843.47;;;29.64;47.79
40650;BME280;26342;42.826;23.992;2023-08-01T09:41:33;94848.56;;;29.77;49.54
40650;BME280;26342;42.826;23.992;2023-08-01T09:43:59;94843.47;;;29.89;48.64
40650;BME280;26342;42.826;23.992;2023-08-01T09:46:24;94842.28;;;30.01;47.06
40650;BME280;26342;42.826;23.992;2023-08-01T09:48:50;94837.19;;;29.96;48.30
40650;BME280;26342;42.826;23.992;2023-08-01T09:51:18;94844.25;;;30.00;50.01
40650;BME280;26342;42.826;23.992;2023-08-01T09:56:28;94830.09;;;30.16;48.67
40650;BME280;26342;42.826;23.992;2023-08-01T09:58:55;94828.91;;;30.17;47.44
40650;BME280;26342;42.826;23.992;2023-08-01T10:01:23;94827.34;;;30.16;49.65
40650;BME280;26342;42.826;23.992;2023-08-01T10:03:50;94822.25;;;30.15;47.31
40650;BME280;26342;42.826;23.992;2023-08-01T10:06:21;94814.41;;;30.13;47.98
40650;BME280;26342;42.826;23.992;2023-08-01T10:08:48;94810.47;;;30.14;48.50
40650;BME280;26342;42.826;23.992;2023-08-01T10:11:16;94803.00;;;29.97;48.66
40650;BME280;26342;42.826;23.992;2023-08-01T10:13:42;94803.00;;;30.11;47.45
40650;BME280;26342;42.826;23.992;2023-08-01T10:16:08;94801.81;;;30.16;47.44
40650;BME280;26342;42.826;23.992;2023-08-01T10:18:34;94797.47;;;30.25;49.72
40650;BME280;26342;42.826;23.992;2023-08-01T10:21:04;94796.66;;;30.25;47.90
40650;BME280;26342;42.826;23.992;2023-08-01T10:23:30;94795.91;;;30.28;46.64
40650;BME280;26342;42.826;23.992;2023-08-01T10:25:58;94791.16;;;30.25;47.97
40650;BME280;26342;42.826;23.992;2023-08-01T10:28:38;94787.25;;;30.29;48.05
40650;BME280;26342;42.826;23.992;2023-08-01T10:31:17;94780.50;;;30.41;50.96
40650;BME280;26342;42.826;23.992;2023-08-01T10:33:47;94779.69;;;30.51;48.07
40650;BME280;26342;42.826;23.992;2023-08-01T10:44:09;94767.50;;;30.52;44.27
40650;BME280;26342;42.826;23.992;2023-08-01T10:46:49;94758.47;;;30.41;47.50
40650;BME280;26342;42.826;23.992;2023-08-01T10:49:16;94763.63;;;30.39;48.47
40650;BME280;26342;42.826;23.992;2023-08-01T10:51:42;94749.13;;;30.28;47.04
40650;BME280;26342;42.826;23.992;2023-08-01T10:54:22;94760.06;;;30.46;47.57
40650;BME280;26342;42.826;23.992;2023-08-01T10:56:50;94760.47;;;30.44;47.64
40650;BME280;26342;42.826;23.992;2023-08-01T10:59:16;94743.53;;;30.46;51.85
40650;BME280;26342;42.826;23.992;2023-08-01T11:01:49;94750.97;;;30.49;48.64
40650;BME280;26342;42.826;23.992;2023-08-01T11:04:19;94746.72;;;30.37;46.93
40650;BME280;26342;42.826;23.992;2023-08-01T11:06:52;94744.69;;;30.48;46.22
40650;BME280;26342;42.826;23.992;2023-08-01T11:09:23;94733.69;;;30.48;46.01
40650;BME280;26342;42.826;23.992;2023-08-01T11:11:52;94734.06;;;30.57;51.52
40650;BME280;26342;42.826;23.992;2023-08-01T11:14:24;94732.84;;;30.69;46.29
40650;BME280;26342;42.826;23.992;2023-08-01T11:16:50;94739.91;;;30.74;43.52
40650;BME280;26342;42.826;23.992;2023-08-01T11:19:28;94729.69;;;30.71;43.81
40650;BME280;26342;42.826;23.992;2023-08-01T11:21:54;94728.53;;;30.61;44.13
40650;BME280;26342;42.826;23.992;2023-08-01T11:24:22;94725.81;;;30.57;46.18
40650;BME280;26342;42.826;23.992;2023-08-01T11:26:49;94731.28;;;30.61;43.03
40650;BME280;26342;42.826;23.992;2023-08-01T11:29:16;94726.19;;;30.56;46.88
40650;BME280;26342;42.826;23.992;2023-08-01T11:32:00;94721.84;;;30.58;46.34
40650;BME280;26342;42.826;23.992;2023-08-01T11:34:25;94723.38;;;30.74;43.97
40650;BME280;26342;42.826;23.992;2023-08-01T11:36:51;94715.06;;;30.84;44.88
40650;BME280;26342;42.826;23.992;2023-08-01T11:39:18;94720.25;;;30.68;44.31
40650;BME280;26342;42.826;23.992;2023-08-01T11:41:44;94715.16;;;30.67;43.19
40650;BME280;26342;42.826;23.992;2023-08-01T11:44:10;94716.25;;;30.83;45.03
40650;BME280;26342;42.826;23.992;2023-08-01T11:46:37;94718.91;;;30.98;42.82
40650;BME280;26342;42.826;23.992;2023-08-01T11:49:04;94708.31;;;30.93;42.30
40650;BME280;26342;42.826;23.992;2023-08-01T11:51:41;94715.75;;;30.96;43.81
40650;BME280;26342;42.826;23.992;2023-08-01T11:54:08;94707.50;;;30.96;45.62
40650;BME280;26342;42.826;23.992;2023-08-01T11:56:35;94711.47;;;30.91;42.23
40650;BME280;26342;42.826;23.992;2023-08-01T11:59:08;94715.50;;;30.76;44.94
40650;BME280;26342;42.826;23.992;2023-08-01T12:01:40;94711.66;;;30.52;43.02
40650;BME280;26342;42.826;23.992;2023-08-01T12:04:06;94707.78;;;30.42;44.78
40650;BME280;26342;42.826;23.992;2023-08-01T12:06:32;94701.91;;;30.33;44.90
40650;BME280;26342;42.826;23.992;2023-08-01T12:09:07;94697.59;;;30.36;48.14
40650;BME280;26342;42.826;23.992;2023-08-01T12:11:32;94697.56;;;30.43;44.46
40650;BME280;26342;42.826;23.992;2023-08-01T12:14:06;94693.19;;;30.45;47.99
40650;BME280;26342;42.826;23.992;2023-08-01T12:16:36;94694.38;;;30.41;46.01
40650;BME280;26342;42.826;23.992;2023-08-01T12:19:02;94682.63;;;30.37;46.23
40650;BME280;26342;42.826;23.992;2023-08-01T12:21:34;94688.09;;;30.40;43.83
40650;BME280;26342;42.826;23.992;2023-08-01T12:24:00;94680.63;;;30.44;46.32
40650;BME280;26342;42.826;23.992;2023-08-01T12:26:27;94682.59;;;30.44;45.56
40650;BME280;26342;42.826;23.992;2023-08-01T12:28:52;94675.50;;;30.46;46.26
40650;BME280;26342;42.826;23.992;2023-08-01T12:31:20;94674.31;;;30.51;46.46
40650;BME280;26342;42.826;23.992;2023-08-01T12:33:47;94664.53;;;30.43;48.23
40650;BME280;26342;42.826;23.992;2023-08-01T12:36:14;94660.19;;;30.42;46.05
40650;BME280;26342;42.826;23.992;2023-08-01T12:38:42;94658.97;;;30.46;43.86
40650;BME280;26342;42.826;23.992;2023-08-01T12:41:07;94658.22;;;30.39;46.38
40650;BME280;26342;42.826;23.992;2023-08-01T12:43:33;94671.22;;;30.42;43.52
40650;BME280;26342;42.826;23.992;2023-08-01T12:45:58;94653.50;;;30.39;41.68
40650;BME280;26342;42.826;23.992;2023-08-01T12:48:25;94649.94;;;30.46;43.69
40650;BME280;26342;42.826;23.992;2023-08-01T12:50:50;94645.59;;;30.52;46.77
40650;BME280;26342;42.826;23.992;2023-08-01T12:53:16;94641.22;;;30.58;43.11